createdAt,value
2023-11-26T00:02:03.584Z,69.41
2023-11-26T00:04:31.867Z,69.75
2023-11-26T00:07:00.028Z,70.19
2023-11-26T00:09:28.017Z,70.97
2023-11-26T00:11:56.150Z,71.22
2023-11-26T00:14:24.159Z,69.95
2023-11-26T00:16:52.637Z,68.77
2023-11-26T00:19:20.718Z,67.86
2023-11-26T00:21:50.423Z,68.25
2023-11-26T00:24:18.619Z,67.50
2023-11-26T00:26:46.862Z,66.94
2023-11-26T00:29:15.868Z,66.24
2023-11-26T00:31:44.020Z,66.79
2023-11-26T00:34:12.480Z,67.19
2023-11-26T00:36:40.584Z,65.92
2023-11-26T00:39:10.252Z,65.89
2023-11-26T00:41:38.493Z,65.85
2023-11-26T00:44:06.565Z,65.93
2023-11-26T00:46:34.830Z,67.26
2023-11-26T00:49:07.081Z,67.49
2023-11-26T00:51:35.287Z,67.74
2023-11-26T00:54:03.457Z,67.63
2023-11-26T00:56:31.487Z,67.51
2023-11-26T00:58:59.720Z,68.18
2023-11-26T01:01:27.855Z,67.73
2023-11-26T01:03:56.245Z,67.23
2023-11-26T01:06:24.370Z,68.01
2023-11-26T01:08:52.368Z,68.74
2023-11-26T01:11:20.570Z,68.92
2023-11-26T01:13:48.937Z,69.57
2023-11-26T01:16:17.116Z,70.54
2023-11-26T01:18:45.389Z,69.93
2023-11-26T01:21:14.847Z,70.94
2023-11-26T01:23:43.486Z,71.09
2023-11-26T01:26:12.469Z,70.73
2023-11-26T01:28:40.804Z,71.39
2023-11-26T01:31:14.556Z,72.54
2023-11-26T01:33:42.683Z,71.55
2023-11-26T01:36:11.285Z,72.05
2023-11-26T01:38:39.996Z,72.98
2023-11-26T01:41:08.743Z,73.35
2023-11-26T01:43:36.766Z,73.33
2023-11-26T01:46:07.101Z,73.34
2023-11-26T01:48:36.675Z,73.66
2023-11-26T01:51:07.310Z,73.43
2023-11-26T01:53:36.678Z,72.99
2023-11-26T01:56:05.832Z,73.30
2023-11-26T01:58:35.224Z,73.84
2023-11-26T02:01:03.676Z,73.82
2023-11-26T02:03:32.027Z,74.37
2023-11-26T02:06:00.449Z,73.87
2023-11-26T02:08:28.737Z,74.59
2023-11-26T02:10:56.844Z,74.40
2023-11-26T02:13:26.464Z,74.26
2023-11-26T02:15:54.634Z,73.14
2023-11-26T02:18:22.783Z,73.01
2023-11-26T02:20:51.069Z,73.20
2023-11-26T02:23:19.132Z,73.49
2023-11-26T02:25:47.204Z,73.58
2023-11-26T02:28:15.246Z,73.05
2023-11-26T02:30:43.397Z,73.59
2023-11-26T02:33:11.589Z,73.70
2023-11-26T02:35:39.749Z,73.72
2023-11-26T02:38:08.159Z,73.23
2023-11-26T02:40:36.284Z,72.44
2023-11-26T02:43:04.560Z,72.05
2023-11-26T02:45:32.555Z,71.68
2023-11-26T02:48:00.944Z,71.51
2023-11-26T02:50:29.545Z,71.26
2023-11-26T02:52:57.587Z,71.09
2023-11-26T02:55:25.628Z,71.32
2023-11-26T02:57:53.910Z,71.48
2023-11-26T03:00:21.960Z,71.05
2023-11-26T03:02:50.680Z,71.11
2023-11-26T03:05:19.938Z,70.98
2023-11-26T03:07:50.277Z,71.33
2023-11-26T03:10:38.052Z,71.20
2023-11-26T03:13:13.697Z,71.66
2023-11-26T03:15:42.260Z,72.20
2023-11-26T03:18:14.069Z,71.06
2023-11-26T03:20:42.780Z,71.46
2023-11-26T03:23:11.197Z,71.65
2023-11-26T03:25:39.803Z,71.17
2023-11-26T03:28:09.209Z,71.98
2023-11-26T03:30:37.508Z,71.45
2023-11-26T03:33:05.871Z,71.18
2023-11-26T03:35:34.167Z,70.81
2023-11-26T03:38:03.026Z,70.32
2023-11-26T03:40:31.244Z,69.47
2023-11-26T03:42:59.987Z,70.04
2023-11-26T03:45:28.063Z,70.74
2023-11-26T03:47:57.691Z,70.81
2023-11-26T03:50:26.173Z,70.69
2023-11-26T03:52:55.442Z,70.54
2023-11-26T03:55:23.745Z,70.45
2023-11-26T03:57:53.820Z,71.29
2023-11-26T04:00:22.988Z,70.91
2023-11-26T04:02:52.449Z,70.53
2023-11-26T04:05:21.302Z,70.95
2023-11-26T04:07:50.832Z,71.21
2023-11-26T04:10:27.526Z,70.40
2023-11-26T04:13:00.492Z,69.95
2023-11-26T04:15:28.750Z,70.40
2023-11-26T04:17:56.930Z,70.69
2023-11-26T04:20:28.245Z,70.10
2023-11-26T04:22:56.473Z,70.04
2023-11-26T04:25:24.800Z,68.22
2023-11-26T04:27:52.804Z,68.02
2023-11-26T04:30:21.142Z,68.52
2023-11-26T04:32:49.345Z,68.98
2023-11-26T04:35:17.371Z,68.43
2023-11-26T04:37:45.593Z,68.47
2023-11-26T04:40:13.709Z,69.69
2023-11-26T04:42:41.805Z,68.83
2023-11-26T04:45:11.345Z,68.01
2023-11-26T04:47:39.736Z,67.75
2023-11-26T04:50:08.563Z,68.27
2023-11-26T04:52:36.692Z,68.06
2023-11-26T04:55:05.082Z,68.85
2023-11-26T04:57:33.103Z,68.40
2023-11-26T05:00:01.352Z,68.37
2023-11-26T05:02:33.809Z,68.90
2023-11-26T05:05:02.406Z,68.14
2023-11-26T05:07:30.700Z,68.62
2023-11-26T05:09:58.847Z,69.23
2023-11-26T05:12:26.905Z,68.48
2023-11-26T05:14:54.901Z,68.04
2023-11-26T05:19:51.297Z,68.27
2023-11-26T05:22:19.313Z,68.40
2023-11-26T05:24:47.299Z,69.11
2023-11-26T05:27:15.333Z,68.22
2023-11-26T05:29:43.513Z,67.92
2023-11-26T05:32:12.129Z,68.21
2023-11-26T05:34:40.295Z,68.17
2023-11-26T05:37:08.276Z,69.16
2023-11-26T05:39:36.301Z,69.93
2023-11-26T05:42:04.583Z,71.26
2023-11-26T05:44:33.003Z,71.16
2023-11-26T05:47:01.064Z,70.76
2023-11-26T05:49:29.465Z,70.55
2023-11-26T05:51:58.846Z,71.45
2023-11-26T05:54:27.035Z,71.60
2023-11-26T05:56:55.195Z,71.69
2023-11-26T05:59:23.366Z,71.58
2023-11-26T06:01:51.854Z,72.27
2023-11-26T06:04:19.863Z,71.38
2023-11-26T06:06:48.436Z,71.44
2023-11-26T06:09:16.834Z,71.04
2023-11-26T06:11:45.383Z,69.83
2023-11-26T06:14:13.426Z,70.92
2023-11-26T06:16:44.920Z,71.04
2023-11-26T06:19:12.910Z,70.46
2023-11-26T06:21:41.036Z,69.44
2023-11-26T06:24:10.448Z,68.27
2023-11-26T06:26:39.420Z,67.20
2023-11-26T06:29:07.859Z,67.26
2023-11-26T06:31:36.016Z,66.93
2023-11-26T06:34:04.264Z,66.40
2023-11-26T06:36:32.378Z,66.66
2023-11-26T06:39:00.466Z,65.98
2023-11-26T06:41:29.763Z,65.84
2023-11-26T06:43:58.183Z,66.14
2023-11-26T06:46:28.409Z,66.36
2023-11-26T06:48:57.014Z,65.94
2023-11-26T06:51:25.230Z,66.33
2023-11-26T06:53:53.661Z,66.48
2023-11-26T06:56:21.855Z,66.82
2023-11-26T06:58:49.836Z,66.56
2023-11-26T07:01:17.846Z,65.93
2023-11-26T07:03:46.449Z,66.11
2023-11-26T07:06:14.760Z,65.98
2023-11-26T07:08:44.809Z,65.58
2023-11-26T07:11:17.892Z,65.54
2023-11-26T07:13:49.276Z,64.94
2023-11-26T07:16:18.242Z,63.90
2023-11-26T07:18:46.760Z,63.60
2023-11-26T07:21:16.295Z,64.07
2023-11-26T07:23:44.563Z,63.44
2023-11-26T07:26:13.507Z,63.85
2023-11-26T07:28:41.670Z,64.07
2023-11-26T07:31:17.330Z,63.98
2023-11-26T07:33:46.909Z,64.01
2023-11-26T07:36:17.405Z,64.36
2023-11-26T07:38:45.584Z,64.68
2023-11-26T07:41:14.123Z,64.43
2023-11-26T07:43:42.952Z,63.96
2023-11-26T07:46:11.547Z,63.33
2023-11-26T07:48:40.263Z,63.74
2023-11-26T07:51:09.386Z,63.17
2023-11-26T07:53:39.417Z,63.30
2023-11-26T07:56:08.328Z,62.77
2023-11-26T07:58:36.578Z,62.97
2023-11-26T08:01:04.738Z,62.75
2023-11-26T08:03:33.597Z,63.05
2023-11-26T08:06:03.269Z,62.39
2023-11-26T08:08:38.708Z,62.58
2023-11-26T08:11:09.099Z,62.78
2023-11-26T08:13:40.479Z,62.03
2023-11-26T08:16:10.494Z,62.16
2023-11-26T08:18:41.144Z,61.47
2023-11-26T08:21:09.681Z,60.58
2023-11-26T08:23:52.088Z,60.09
2023-11-26T08:26:24.102Z,60.32
2023-11-26T08:28:52.429Z,60.49
2023-11-26T08:31:23.450Z,60.86
2023-11-26T08:33:52.011Z,60.06
2023-11-26T08:36:20.387Z,59.58
2023-11-26T08:38:49.467Z,59.45
2023-11-26T08:41:22.776Z,58.61
2023-11-26T08:43:52.726Z,59.04
2023-11-26T08:46:22.847Z,58.28
2023-11-26T08:48:54.283Z,58.32
2023-11-26T08:51:23.647Z,58.53
2023-11-26T08:53:51.951Z,58.07
2023-11-26T08:56:20.760Z,58.02
2023-11-26T08:58:48.721Z,57.87
2023-11-26T09:01:16.822Z,57.33
2023-11-26T09:03:45.132Z,56.91
2023-11-26T09:06:14.263Z,56.81
2023-11-26T09:08:42.446Z,56.92
2023-11-26T09:11:11.085Z,56.70
2023-11-26T09:13:39.315Z,56.55
2023-11-26T09:16:07.894Z,56.38
2023-11-26T09:18:39.183Z,55.91
2023-11-26T09:21:07.276Z,55.62
2023-11-26T09:23:35.903Z,55.25
2023-11-26T09:26:05.836Z,54.34
2023-11-26T09:28:34.018Z,55.02
2023-11-26T09:31:05.218Z,54.10
2023-11-26T09:33:33.494Z,52.32
2023-11-26T09:36:04.037Z,52.93
2023-11-26T09:38:32.014Z,52.93
2023-11-26T09:41:00.051Z,52.19
2023-11-26T09:43:32.165Z,51.48
2023-11-26T09:46:01.939Z,52.52
2023-11-26T09:48:30.510Z,51.67
2023-11-26T09:51:00.392Z,51.84
2023-11-26T09:53:30.196Z,50.64
2023-11-26T09:55:59.064Z,51.26
2023-11-26T09:58:27.190Z,51.81
2023-11-26T10:00:56.216Z,51.43
2023-11-26T10:03:24.883Z,50.90
2023-11-26T10:06:09.467Z,52.62
2023-11-26T10:08:37.488Z,51.98
2023-11-26T10:11:06.268Z,51.60
2023-11-26T10:13:39.844Z,50.94
2023-11-26T10:16:09.814Z,49.98
2023-11-26T10:18:42.188Z,50.26
2023-11-26T10:21:10.215Z,49.89
2023-11-26T10:23:40.122Z,51.84
2023-11-26T10:26:28.452Z,52.70
2023-11-26T10:29:02.573Z,54.18
2023-11-26T10:31:30.938Z,55.26
2023-11-26T10:34:17.569Z,56.23
2023-11-26T10:36:45.824Z,56.41
2023-11-26T10:39:16.186Z,57.05
2023-11-26T10:41:48.438Z,57.77
2023-11-26T10:44:17.323Z,59.35
2023-11-26T10:46:46.327Z,59.26
2023-11-26T10:49:14.368Z,59.17
2023-11-26T10:51:47.004Z,60.33
2023-11-26T10:54:25.806Z,61.56
2023-11-26T10:56:55.345Z,62.11
2023-11-26T10:59:24.166Z,62.81
2023-11-26T11:01:52.425Z,63.43
2023-11-26T11:04:22.389Z,63.36
2023-11-26T11:06:50.554Z,63.60
2023-11-26T11:09:25.425Z,63.05
2023-11-26T11:11:59.668Z,63.18
2023-11-26T11:14:29.158Z,63.50
2023-11-26T11:16:57.262Z,63.64
2023-11-26T11:19:44.209Z,63.79
2023-11-26T11:22:12.270Z,63.66
2023-11-26T11:24:40.319Z,63.66
2023-11-26T11:27:08.690Z,64.00
2023-11-26T11:29:36.831Z,63.89
2023-11-26T11:32:05.517Z,63.32
2023-11-26T11:34:34.826Z,62.95
2023-11-26T11:37:04.316Z,63.56
2023-11-26T11:39:45.899Z,62.61
2023-11-26T11:42:15.086Z,63.30
2023-11-26T11:44:44.463Z,63.82
2023-11-26T11:47:16.579Z,63.93
2023-11-26T11:49:47.846Z,63.69
2023-11-26T11:52:16.932Z,64.01
2023-11-26T11:54:54.028Z,63.84
2023-11-26T11:57:28.926Z,63.71
2023-11-26T11:59:57.073Z,63.89
2023-11-26T12:02:25.445Z,63.93
2023-11-26T12:04:54.426Z,63.85
2023-11-26T12:07:30.516Z,63.40
2023-11-26T12:10:02.578Z,63.37
2023-11-26T12:12:31.017Z,62.69
2023-11-26T12:15:07.894Z,62.63
2023-11-26T12:17:36.276Z,62.20
2023-11-26T12:20:07.917Z,61.23
2023-11-26T12:22:44.209Z,60.88
2023-11-26T12:25:12.565Z,60.47
2023-11-26T12:27:40.692Z,60.90
2023-11-26T12:30:12.553Z,61.86
2023-11-26T12:32:44.476Z,62.19
2023-11-26T12:35:13.557Z,62.36
2023-11-26T12:37:44.108Z,62.41
2023-11-26T12:40:12.831Z,62.78
2023-11-26T12:42:43.082Z,62.13
2023-11-26T12:45:12.128Z,62.11
2023-11-26T12:47:53.181Z,61.53
2023-11-26T12:50:22.491Z,62.44
2023-11-26T12:52:51.478Z,62.13
2023-11-26T12:55:19.880Z,61.59
2023-11-26T12:57:48.174Z,61.39
2023-11-26T13:00:16.442Z,61.04
2023-11-26T13:02:47.941Z,60.94
2023-11-26T13:05:28.752Z,61.23
2023-11-26T13:07:57.519Z,60.44
2023-11-26T13:10:45.093Z,59.02
2023-11-26T13:13:13.948Z,58.09
2023-11-26T13:15:43.240Z,57.54
2023-11-26T13:18:14.833Z,57.45
2023-11-26T13:20:47.715Z,57.13
2023-11-26T13:23:16.459Z,56.62
2023-11-26T13:25:52.741Z,56.92
2023-11-26T13:28:21.350Z,58.13
2023-11-26T13:30:50.418Z,58.51
2023-11-26T13:33:19.160Z,57.91
2023-11-26T13:35:48.073Z,56.79
2023-11-26T13:38:16.689Z,55.39
2023-11-26T13:40:49.130Z,54.85
2023-11-26T13:43:22.436Z,52.63
2023-11-26T13:45:51.397Z,52.50
2023-11-26T13:48:24.580Z,51.50
2023-11-26T13:50:53.672Z,51.26
2023-11-26T13:53:24.804Z,51.87
2023-11-26T13:55:54.764Z,52.08
2023-11-26T13:58:23.758Z,52.35
2023-11-26T14:00:52.069Z,52.99
2023-11-26T14:03:20.589Z,53.53
2023-11-26T14:05:48.991Z,53.19
2023-11-26T14:08:17.069Z,53.73
2023-11-26T14:10:46.673Z,54.12
2023-11-26T14:13:19.380Z,53.63
2023-11-26T14:15:48.004Z,54.70
2023-11-26T14:18:16.187Z,54.74
2023-11-26T14:20:44.269Z,55.55
2023-11-26T14:23:13.124Z,56.19
2023-11-26T14:25:41.441Z,55.65
2023-11-26T14:28:10.868Z,55.65
2023-11-26T14:30:39.723Z,55.78
2023-11-26T14:33:07.977Z,55.70
2023-11-26T14:35:36.302Z,54.05
2023-11-26T14:38:04.429Z,50.90
2023-11-26T14:40:32.438Z,51.30
2023-11-26T14:43:01.090Z,52.27
2023-11-26T14:45:29.300Z,52.48
2023-11-26T14:47:58.347Z,52.42
2023-11-26T14:50:27.776Z,53.05
2023-11-26T14:52:56.164Z,52.82
2023-11-26T14:55:25.504Z,53.34
2023-11-26T14:57:53.602Z,54.52
2023-11-26T15:00:23.422Z,53.49
2023-11-26T15:02:51.802Z,53.32
2023-11-26T15:05:20.667Z,53.94
2023-11-26T15:07:49.060Z,53.41
2023-11-26T15:10:17.344Z,53.59
2023-11-26T15:12:46.227Z,54.31
2023-11-26T15:15:16.604Z,54.61
2023-11-26T15:17:44.929Z,54.27
2023-11-26T15:20:14.305Z,53.52
2023-11-26T15:22:43.587Z,54.28
2023-11-26T15:25:16.074Z,54.67
2023-11-26T15:27:45.079Z,53.62
2023-11-26T15:30:16.407Z,54.35
2023-11-26T15:32:44.992Z,54.37
2023-11-26T15:35:13.609Z,54.60
2023-11-26T15:37:42.127Z,55.36
2023-11-26T15:40:12.610Z,55.84
2023-11-26T15:42:41.750Z,55.74
2023-11-26T15:45:13.617Z,55.80
2023-11-26T15:47:43.336Z,56.80
2023-11-26T15:50:13.006Z,57.08
2023-11-26T15:52:41.301Z,57.99
2023-11-26T15:55:10.993Z,57.73
2023-11-26T15:57:39.506Z,57.63
2023-11-26T16:00:08.272Z,58.37
2023-11-26T16:02:41.694Z,58.77
2023-11-26T16:05:10.483Z,59.19
2023-11-26T16:07:38.735Z,59.33
2023-11-26T16:10:07.367Z,58.34
2023-11-26T16:12:35.398Z,59.10
2023-11-26T16:15:03.937Z,59.32
2023-11-26T16:17:34.576Z,58.19
2023-11-26T16:20:05.085Z,58.37
2023-11-26T16:22:36.673Z,58.96
2023-11-26T16:25:10.925Z,58.90
2023-11-26T16:27:39.609Z,59.48
2023-11-26T16:30:08.134Z,59.26
2023-11-26T16:32:36.318Z,59.22
2023-11-26T16:35:05.416Z,59.96
2023-11-26T16:37:33.739Z,60.83
2023-11-26T16:40:06.106Z,59.72
2023-11-26T16:42:35.015Z,59.87
2023-11-26T16:45:04.186Z,60.49
2023-11-26T16:47:36.148Z,59.90
2023-11-26T16:50:05.663Z,60.56
2023-11-26T16:52:33.836Z,60.49
2023-11-26T16:55:01.917Z,61.10
2023-11-26T16:57:30.146Z,61.77
2023-11-26T16:59:58.247Z,61.29
2023-11-26T17:02:26.884Z,61.39
2023-11-26T17:04:55.256Z,61.78
2023-11-26T17:07:23.440Z,62.37
2023-11-26T17:09:51.556Z,62.43
2023-11-26T17:12:19.749Z,62.07
2023-11-26T17:14:48.353Z,62.82
2023-11-26T17:17:16.617Z,62.77
2023-11-26T17:19:45.916Z,62.81
2023-11-26T17:22:15.092Z,62.95
2023-11-26T17:24:43.183Z,62.39
2023-11-26T17:27:11.332Z,62.23
2023-11-26T17:29:39.453Z,61.80
2023-11-26T17:32:08.830Z,62.22
2023-11-26T17:34:37.185Z,63.10
2023-11-26T17:37:05.374Z,63.44
2023-11-26T17:39:34.118Z,63.53
2023-11-26T17:42:06.316Z,63.27
2023-11-26T17:44:34.300Z,63.74
2023-11-26T17:47:02.426Z,64.56
2023-11-26T17:49:30.543Z,64.20
2023-11-26T17:51:58.793Z,63.58
2023-11-26T17:54:26.960Z,64.13
2023-11-26T17:56:55.699Z,64.15
2023-11-26T17:59:24.200Z,64.42
2023-11-26T18:01:52.517Z,65.06
2023-11-26T18:04:20.890Z,65.74
2023-11-26T18:06:49.537Z,64.49
2023-11-26T18:09:18.100Z,65.06
2023-11-26T18:11:47.448Z,64.62
2023-11-26T18:14:16.589Z,64.58
2023-11-26T18:16:50.652Z,64.52
2023-11-26T18:19:21.988Z,64.75
2023-11-26T18:21:50.273Z,65.47
2023-11-26T18:24:18.667Z,65.38
2023-11-26T18:26:47.856Z,66.31
2023-11-26T18:29:16.247Z,66.61
2023-11-26T18:31:44.660Z,66.47
2023-11-26T18:34:14.199Z,66.81
2023-11-26T18:36:42.656Z,67.73
2023-11-26T18:39:11.753Z,67.92
2023-11-26T18:41:39.783Z,67.72
2023-11-26T18:44:10.908Z,68.22
2023-11-26T18:46:38.959Z,68.37
2023-11-26T18:49:07.936Z,68.91
2023-11-26T18:51:37.128Z,68.97
2023-11-26T18:54:10.251Z,68.58
2023-11-26T18:56:38.280Z,68.85
2023-11-26T18:59:07.865Z,68.79
2023-11-26T19:01:39.612Z,69.22
2023-11-26T19:04:07.752Z,69.22
2023-11-26T19:06:35.780Z,68.60
2023-11-26T19:09:04.756Z,69.06
2023-11-26T19:11:33.964Z,69.61
2023-11-26T19:14:03.454Z,69.77
2023-11-26T19:16:32.075Z,69.86
2023-11-26T19:19:00.329Z,69.76
2023-11-26T19:21:28.634Z,69.89
2023-11-26T19:23:57.188Z,69.46
2023-11-26T19:26:28.070Z,69.47
2023-11-26T19:28:56.606Z,69.39
2023-11-26T19:31:27.987Z,69.51
2023-11-26T19:33:58.588Z,70.17
2023-11-26T19:36:28.811Z,70.03
2023-11-26T19:38:57.584Z,69.84
2023-11-26T19:41:26.110Z,69.72
2023-11-26T19:43:54.903Z,69.55
2023-11-26T19:46:23.234Z,69.66
2023-11-26T19:48:51.672Z,69.70
2023-11-26T19:51:24.824Z,69.92
2023-11-26T19:53:52.913Z,69.72
2023-11-26T19:56:24.142Z,69.84
2023-11-26T19:58:53.955Z,69.98
2023-11-26T20:01:23.592Z,69.56
2023-11-26T20:03:55.908Z,69.53
2023-11-26T20:06:23.993Z,69.92
2023-11-26T20:08:54.294Z,70.10
2023-11-26T20:11:24.503Z,69.69
2023-11-26T20:13:53.796Z,69.70
2023-11-26T20:16:25.729Z,69.40
2023-11-26T20:18:55.660Z,69.47
2023-11-26T20:21:24.900Z,69.20
2023-11-26T20:23:53.408Z,69.10
2023-11-26T20:26:21.626Z,69.11
2023-11-26T20:28:50.091Z,69.14
2023-11-26T20:31:18.327Z,69.42
2023-11-26T20:33:46.654Z,68.92
2023-11-26T20:36:19.955Z,69.29
2023-11-26T20:38:48.225Z,69.28
2023-11-26T20:41:16.469Z,69.31
2023-11-26T20:43:44.654Z,68.97
2023-11-26T20:46:22.516Z,69.20
2023-11-26T20:48:51.057Z,69.14
2023-11-26T20:51:26.694Z,69.43
2023-11-26T20:53:56.844Z,69.25
2023-11-26T20:56:26.844Z,68.47
2023-11-26T20:58:56.389Z,68.44
2023-11-26T21:01:25.903Z,68.61
2023-11-26T21:03:54.587Z,68.18
2023-11-26T21:06:23.081Z,68.46
2023-11-26T21:08:51.217Z,68.14
2023-11-26T21:11:19.270Z,68.10
2023-11-26T21:13:48.486Z,67.82
2023-11-26T21:16:16.764Z,67.88
2023-11-26T21:18:45.910Z,67.34
2023-11-26T21:21:14.728Z,67.11
2023-11-26T21:23:42.792Z,66.58
2023-11-26T21:26:12.363Z,66.75
2023-11-26T21:28:40.560Z,65.69
2023-11-26T21:31:09.313Z,65.58
2023-11-26T21:33:37.746Z,65.71
2023-11-26T21:36:06.413Z,65.60
2023-11-26T21:38:34.469Z,65.16
2023-11-26T21:41:07.676Z,65.48
2023-11-26T21:43:39.327Z,65.47
2023-11-26T21:46:25.826Z,65.74
2023-11-26T21:49:00.700Z,66.22
2023-11-26T21:51:28.900Z,66.35
2023-11-26T21:53:57.180Z,67.02
2023-11-26T21:56:25.380Z,66.85
2023-11-26T21:58:56.305Z,66.64
2023-11-26T22:01:24.589Z,67.07
2023-11-26T22:03:52.862Z,66.37
2023-11-26T22:06:20.880Z,66.41
2023-11-26T22:08:48.976Z,65.87
2023-11-26T22:11:21.983Z,65.92
2023-11-26T22:13:50.603Z,64.85
2023-11-26T22:16:19.802Z,64.13
2023-11-26T22:18:48.269Z,64.10
2023-11-26T22:21:17.283Z,63.58
2023-11-26T22:23:46.054Z,62.62
2023-11-26T22:26:14.243Z,63.02
2023-11-26T22:28:42.713Z,63.09
2023-11-26T22:31:15.485Z,62.63
2023-11-26T22:33:44.392Z,62.87
2023-11-26T22:36:18.901Z,62.62
2023-11-26T22:38:47.114Z,63.34
2023-11-26T22:41:21.146Z,63.70
2023-11-26T22:43:49.515Z,64.32
2023-11-26T22:46:37.879Z,64.14
2023-11-26T22:49:05.935Z,64.00
2023-11-26T22:51:34.674Z,64.42
2023-11-26T22:54:04.636Z,64.86
2023-11-26T22:56:33.477Z,64.71
2023-11-26T22:59:01.598Z,64.61
2023-11-26T23:01:30.203Z,65.00
2023-11-26T23:03:58.453Z,64.24
2023-11-26T23:06:26.530Z,64.31
2023-11-26T23:08:54.976Z,64.08
2023-11-26T23:11:23.093Z,64.33
2023-11-26T23:13:52.751Z,64.58
2023-11-26T23:16:22.828Z,62.75
2023-11-26T23:18:51.245Z,62.38
2023-11-26T23:21:19.382Z,62.17
2023-11-26T23:23:52.204Z,62.03
2023-11-26T23:26:22.257Z,61.33
2023-11-26T23:28:51.138Z,60.99
2023-11-26T23:31:21.375Z,60.50
2023-11-26T23:33:50.538Z,60.29
2023-11-26T23:36:19.041Z,60.21
2023-11-26T23:38:47.975Z,60.17
2023-11-26T23:41:16.058Z,60.58
2023-11-26T23:43:44.901Z,60.66
2023-11-26T23:46:13.255Z,60.73
2023-11-26T23:48:44.264Z,60.12
2023-11-26T23:51:12.752Z,58.86
2023-11-26T23:53:40.765Z,59.72
2023-11-26T23:56:09.114Z,59.52
2023-11-26T23:58:37.170Z,59.70
